createdAt,value
2023-04-26T00:02:15.300Z,2.72
2023-04-26T00:04:41.928Z,3.17
2023-04-26T00:07:08.502Z,2.75
2023-04-26T00:09:34.789Z,2.95
2023-04-26T00:12:01.146Z,2.67
2023-04-26T00:14:27.504Z,3.53
2023-04-26T00:16:54.211Z,3.13
2023-04-26T00:19:20.486Z,2.95
2023-04-26T00:21:46.805Z,3.10
2023-04-26T00:24:13.092Z,3.10
2023-04-26T00:26:39.388Z,2.85
2023-04-26T00:29:05.693Z,2.78
2023-04-26T00:31:32.134Z,3.22
2023-04-26T00:33:58.444Z,2.80
2023-04-26T00:36:24.762Z,3.00
2023-04-26T00:38:51.375Z,2.97
2023-04-26T00:41:17.794Z,3.08
2023-04-26T00:43:44.481Z,2.63
2023-04-26T00:46:10.907Z,2.78
2023-04-26T00:48:37.876Z,3.20
2023-04-26T00:51:05.624Z,3.60
2023-04-26T00:55:58.883Z,2.90
2023-04-26T00:58:25.743Z,2.60
2023-04-26T01:00:52.207Z,2.90
2023-04-26T01:03:19.460Z,3.20
2023-04-26T01:05:46.341Z,2.90
2023-04-26T01:08:12.886Z,3.03
2023-04-26T01:10:40.054Z,3.22
2023-04-26T01:13:06.464Z,2.83
2023-04-26T01:15:32.864Z,2.83
2023-04-26T01:17:59.978Z,3.10
2023-04-26T01:20:26.305Z,3.05
2023-04-26T01:22:52.638Z,3.22
2023-04-26T01:25:19.294Z,3.90
2023-04-26T01:27:45.595Z,2.90
2023-04-26T01:30:12.230Z,2.90
2023-04-26T01:32:38.523Z,2.97
2023-04-26T01:35:05.302Z,2.70
2023-04-26T01:37:31.593Z,2.80
2023-04-26T01:39:57.888Z,2.47
2023-04-26T01:42:24.255Z,3.13
2023-04-26T01:44:50.648Z,2.80
2023-04-26T01:47:17.048Z,3.42
2023-04-26T01:49:43.500Z,3.00
2023-04-26T01:52:09.789Z,3.25
2023-04-26T01:54:36.191Z,3.25
2023-04-26T01:57:02.527Z,2.97
2023-04-26T01:59:29.017Z,2.90
2023-04-26T02:01:55.356Z,3.63
2023-04-26T02:04:21.781Z,3.38
2023-04-26T02:06:48.092Z,3.05
2023-04-26T02:09:14.419Z,3.05
2023-04-26T02:11:40.715Z,3.80
2023-04-26T02:14:07.253Z,3.28
2023-04-26T02:16:33.602Z,3.10
2023-04-26T02:19:00.002Z,3.08
2023-04-26T02:21:26.373Z,3.22
2023-04-26T02:23:52.943Z,3.28
2023-04-26T02:26:19.248Z,3.17
2023-04-26T02:28:45.670Z,3.38
2023-04-26T02:31:11.962Z,3.83
2023-04-26T02:33:38.256Z,3.60
2023-04-26T02:36:10.641Z,3.40
2023-04-26T02:38:41.964Z,3.50
2023-04-26T02:41:08.237Z,2.92
2023-04-26T02:43:39.605Z,3.90
2023-04-26T02:46:11.078Z,3.20
2023-04-26T02:48:37.550Z,3.05
2023-04-26T02:51:04.044Z,3.00
2023-04-26T02:53:30.328Z,3.35
2023-04-26T02:55:56.702Z,3.53
2023-04-26T02:58:23.050Z,4.03
2023-04-26T03:00:49.492Z,3.28
2023-04-26T03:03:16.067Z,3.95
2023-04-26T03:05:42.649Z,3.40
2023-04-26T03:08:08.968Z,3.53
2023-04-26T03:10:35.213Z,3.67
2023-04-26T03:13:01.633Z,3.88
2023-04-26T03:15:27.911Z,3.47
2023-04-26T03:17:54.220Z,4.03
2023-04-26T03:20:20.571Z,4.47
2023-04-26T03:22:46.877Z,3.67
2023-04-26T03:25:13.175Z,3.47
2023-04-26T03:27:39.575Z,3.42
2023-04-26T03:30:06.648Z,3.63
2023-04-26T03:32:33.065Z,3.22
2023-04-26T03:34:59.428Z,3.40
2023-04-26T03:37:25.680Z,3.97
2023-04-26T03:39:52.118Z,3.65
2023-04-26T03:42:18.403Z,3.60
2023-04-26T03:44:44.711Z,3.92
2023-04-26T03:47:11.010Z,3.80
2023-04-26T03:49:37.287Z,3.70
2023-04-26T03:52:03.771Z,3.95
2023-04-26T03:54:30.029Z,3.92
2023-04-26T03:56:56.417Z,4.20
2023-04-26T03:59:22.702Z,4.00
2023-04-26T04:01:49.008Z,3.60
2023-04-26T04:04:15.471Z,3.47
2023-04-26T04:06:41.976Z,3.83
2023-04-26T04:09:08.379Z,3.95
2023-04-26T04:11:34.740Z,3.80
2023-04-26T04:14:01.113Z,3.40
2023-04-26T04:16:27.499Z,3.63
2023-04-26T04:18:54.126Z,3.85
2023-04-26T04:21:20.632Z,3.67
2023-04-26T04:23:47.014Z,3.85
2023-04-26T04:26:13.390Z,3.72
2023-04-26T04:28:40.152Z,3.90
2023-04-26T04:31:06.504Z,3.80
2023-04-26T04:33:32.812Z,3.65
2023-04-26T04:35:59.197Z,3.72
2023-04-26T04:38:25.512Z,3.58
2023-04-26T04:40:51.811Z,4.20
2023-04-26T04:43:18.168Z,3.33
2023-04-26T04:45:44.461Z,3.60
2023-04-26T04:48:11.040Z,3.60
2023-04-26T04:50:39.098Z,3.72
2023-04-26T04:53:05.532Z,4.03
2023-04-26T04:55:31.824Z,3.67
2023-04-26T04:57:58.111Z,3.85
2023-04-26T05:00:24.714Z,4.18
2023-04-26T05:02:51.141Z,3.97
2023-04-26T05:05:17.696Z,4.40
2023-04-26T05:07:43.996Z,4.00
2023-04-26T05:10:10.975Z,4.30
2023-04-26T05:12:37.310Z,4.35
2023-04-26T05:15:04.548Z,3.53
2023-04-26T05:17:32.651Z,3.95
2023-04-26T05:19:58.971Z,4.20
2023-04-26T05:22:27.272Z,3.35
2023-04-26T05:24:53.655Z,4.00
2023-04-26T05:27:20.019Z,3.42
2023-04-26T05:29:46.391Z,3.80
2023-04-26T05:32:12.855Z,3.85
2023-04-26T05:34:39.267Z,3.67
2023-04-26T05:37:05.566Z,3.78
2023-04-26T05:39:31.958Z,4.07
2023-04-26T05:41:58.304Z,4.03
2023-04-26T05:44:24.566Z,3.72
2023-04-26T05:46:50.828Z,3.35
2023-04-26T05:49:17.170Z,3.55
2023-04-26T05:51:43.582Z,3.85
2023-04-26T05:54:09.939Z,4.45
2023-04-26T05:56:36.221Z,2.97
2023-04-26T05:59:02.565Z,3.45
2023-04-26T06:01:28.946Z,3.70
2023-04-26T06:03:57.864Z,3.47
2023-04-26T06:06:26.604Z,3.17
2023-04-26T06:08:52.884Z,3.25
2023-04-26T06:11:19.249Z,3.67
2023-04-26T06:13:45.540Z,3.25
2023-04-26T06:16:11.822Z,2.65
2023-04-26T06:18:38.084Z,3.40
2023-04-26T06:21:05.208Z,3.28
2023-04-26T06:23:31.517Z,3.58
2023-04-26T06:25:57.912Z,2.92
2023-04-26T06:28:24.226Z,2.97
2023-04-26T06:30:50.515Z,3.75
2023-04-26T06:33:17.031Z,2.90
2023-04-26T06:35:43.328Z,2.60
2023-04-26T06:38:09.755Z,2.75
2023-04-26T06:40:36.156Z,2.78
2023-04-26T06:43:02.879Z,3.22
2023-04-26T06:45:29.692Z,3.50
2023-04-26T06:47:56.136Z,3.10
2023-04-26T06:50:22.742Z,2.83
2023-04-26T06:52:49.049Z,3.33
2023-04-26T06:55:15.352Z,3.17
2023-04-26T06:57:41.622Z,2.70
2023-04-26T07:00:08.643Z,2.90
2023-04-26T07:02:35.156Z,2.83
2023-04-26T07:05:01.723Z,2.15
2023-04-26T07:07:28.437Z,2.13
2023-04-26T07:09:54.817Z,2.10
2023-04-26T07:12:21.101Z,2.10
2023-04-26T07:14:47.399Z,1.50
2023-04-26T07:17:13.766Z,1.90
2023-04-26T07:19:40.066Z,2.10
2023-04-26T07:22:06.394Z,2.08
2023-04-26T07:24:32.699Z,2.22
2023-04-26T07:26:59.094Z,2.03
2023-04-26T07:29:25.407Z,1.73
2023-04-26T07:31:51.725Z,2.00
2023-04-26T07:34:18.045Z,1.88
2023-04-26T07:36:44.327Z,1.88
2023-04-26T07:39:10.640Z,1.70
2023-04-26T07:41:37.156Z,2.28
2023-04-26T07:44:03.664Z,1.52
2023-04-26T07:46:29.974Z,1.98
2023-04-26T07:48:56.257Z,2.10
2023-04-26T07:51:22.581Z,1.73
2023-04-26T07:53:48.855Z,2.10
2023-04-26T07:56:15.153Z,2.17
2023-04-26T07:58:41.679Z,1.75
2023-04-26T08:01:07.986Z,1.73
2023-04-26T08:03:34.472Z,2.10
2023-04-26T08:06:01.406Z,2.13
2023-04-26T08:08:28.058Z,2.65
2023-04-26T08:10:54.759Z,2.25
2023-04-26T08:13:21.555Z,2.08
2023-04-26T08:15:48.214Z,2.45
2023-04-26T08:18:14.526Z,1.83
2023-04-26T08:20:41.007Z,2.25
2023-04-26T08:23:07.327Z,2.20
2023-04-26T08:25:33.603Z,2.50
2023-04-26T08:27:59.884Z,2.40
2023-04-26T08:30:26.184Z,2.58
2023-04-26T08:32:52.566Z,2.50
2023-04-26T08:35:18.999Z,2.33
2023-04-26T08:37:45.386Z,2.05
2023-04-26T08:40:11.725Z,2.40
2023-04-26T08:42:42.335Z,2.20
2023-04-26T08:45:09.030Z,2.22
2023-04-26T08:47:42.729Z,2.30
2023-04-26T08:50:11.630Z,1.90
2023-04-26T08:52:39.557Z,2.17
2023-04-26T08:55:07.752Z,1.98
2023-04-26T08:57:34.189Z,2.35
2023-04-26T09:00:02.332Z,2.22
2023-04-26T09:02:29.467Z,2.00
2023-04-26T09:04:56.025Z,1.85
2023-04-26T09:07:30.316Z,2.30
2023-04-26T09:09:58.528Z,1.58
2023-04-26T09:12:25.327Z,1.90
2023-04-26T09:14:51.778Z,1.90
2023-04-26T09:17:30.361Z,1.70
2023-04-26T09:19:57.400Z,1.90
2023-04-26T09:22:36.984Z,2.10
2023-04-26T09:27:41.084Z,1.75
2023-04-26T09:30:14.775Z,2.28
2023-04-26T09:32:54.952Z,2.00
2023-04-26T09:35:33.479Z,1.67
2023-04-26T09:38:08.610Z,1.67
2023-04-26T09:40:46.016Z,1.45
2023-04-26T09:43:22.457Z,1.95
2023-04-26T09:45:53.881Z,1.60
2023-04-26T09:48:28.509Z,2.30
2023-04-26T09:51:08.320Z,1.80
2023-04-26T09:53:35.615Z,2.00
2023-04-26T09:58:47.914Z,1.40
2023-04-26T10:01:15.799Z,1.80
2023-04-26T10:03:42.454Z,1.63
2023-04-26T10:06:09.227Z,1.92
2023-04-26T10:08:36.181Z,1.52
2023-04-26T10:11:06.898Z,1.70
2023-04-26T10:13:33.516Z,1.85
2023-04-26T10:16:00.493Z,1.70
2023-04-26T10:18:26.894Z,1.70
2023-04-26T10:20:57.244Z,2.30
2023-04-26T10:23:24.579Z,1.45
2023-04-26T10:28:40.456Z,1.58
2023-04-26T10:31:06.823Z,1.40
2023-04-26T10:33:33.457Z,1.60
2023-04-26T10:36:07.523Z,1.80
2023-04-26T10:38:35.776Z,1.85
2023-04-26T10:41:31.050Z,1.88
2023-04-26T10:43:59.196Z,1.75
2023-04-26T10:46:38.808Z,1.95
2023-04-26T10:49:19.166Z,2.13
2023-04-26T10:52:10.966Z,1.95
2023-04-26T10:54:57.138Z,2.10
2023-04-26T10:57:47.453Z,2.30
2023-04-26T11:00:31.341Z,1.90
2023-04-26T11:03:02.547Z,2.30
2023-04-26T11:06:05.698Z,1.85
2023-04-26T11:08:32.036Z,2.10
2023-04-26T11:11:06.573Z,2.30
2023-04-26T11:13:35.227Z,2.13
2023-04-26T11:16:03.521Z,2.45
2023-04-26T11:18:30.752Z,2.00
2023-04-26T11:20:58.387Z,2.25
2023-04-26T11:23:27.432Z,2.30
2023-04-26T11:25:54.152Z,2.45
2023-04-26T11:28:20.822Z,2.15
2023-04-26T11:30:49.301Z,2.20
2023-04-26T11:33:20.700Z,1.90
2023-04-26T11:35:47.249Z,2.05
2023-04-26T11:38:13.958Z,2.00
2023-04-26T11:40:40.392Z,1.85
2023-04-26T11:43:07.642Z,2.08
2023-04-26T11:45:35.518Z,1.92
2023-04-26T11:48:03.388Z,2.63
2023-04-26T11:50:32.213Z,2.30
2023-04-26T11:53:00.362Z,1.95
2023-04-26T11:55:31.304Z,2.30
2023-04-26T11:57:58.880Z,1.90
2023-04-26T12:00:26.738Z,2.03
2023-04-26T12:02:53.881Z,1.85
2023-04-26T12:07:52.290Z,1.92
2023-04-26T12:10:20.472Z,1.50
2023-04-26T12:12:51.228Z,2.20
2023-04-26T12:15:25.318Z,2.25
2023-04-26T12:17:56.763Z,2.13
2023-04-26T12:20:27.486Z,1.92
2023-04-26T12:23:05.262Z,2.00
2023-04-26T12:25:33.697Z,2.05
2023-04-26T12:28:00.869Z,2.00
2023-04-26T12:30:29.086Z,1.88
2023-04-26T12:33:05.797Z,2.45
2023-04-26T12:35:42.180Z,1.80
2023-04-26T12:38:08.649Z,1.70
2023-04-26T12:40:34.962Z,2.00
2023-04-26T12:43:01.318Z,1.95
2023-04-26T12:45:27.612Z,2.17
2023-04-26T12:47:54.478Z,2.03
2023-04-26T12:50:21.081Z,2.33
2023-04-26T12:52:47.608Z,2.42
2023-04-26T12:55:15.667Z,2.25
2023-04-26T12:57:43.820Z,1.95
2023-04-26T13:00:17.272Z,2.60
2023-04-26T13:02:44.194Z,1.98
2023-04-26T13:05:11.052Z,2.35
2023-04-26T13:07:40.576Z,2.60
2023-04-26T13:10:07.914Z,2.22
2023-04-26T13:12:34.898Z,2.28
2023-04-26T13:15:01.336Z,2.90
2023-04-26T13:17:28.032Z,2.70
2023-04-26T13:19:54.404Z,2.25
2023-04-26T13:22:20.783Z,2.65
2023-04-26T13:24:47.050Z,2.78
2023-04-26T13:27:13.777Z,2.30
2023-04-26T13:29:40.952Z,2.40
2023-04-26T13:32:07.673Z,2.45
2023-04-26T13:34:34.233Z,2.70
2023-04-26T13:37:00.562Z,2.65
2023-04-26T13:39:27.858Z,5.15
2023-04-26T13:44:20.806Z,2.78
2023-04-26T13:46:47.436Z,2.40
2023-04-26T13:49:13.882Z,2.25
2023-04-26T13:51:40.588Z,2.35
2023-04-26T13:54:06.994Z,2.28
2023-04-26T13:56:33.451Z,2.30
2023-04-26T13:59:00.521Z,2.55
2023-04-26T14:01:27.414Z,2.55
2023-04-26T14:03:55.888Z,2.53
2023-04-26T14:06:22.730Z,2.22
2023-04-26T14:08:49.025Z,2.22
2023-04-26T14:11:15.484Z,2.45
2023-04-26T14:13:41.763Z,2.55
2023-04-26T14:16:08.177Z,2.15
2023-04-26T14:18:34.539Z,2.30
2023-04-26T14:21:00.968Z,2.70
2023-04-26T14:23:27.323Z,2.40
2023-04-26T14:25:53.834Z,2.72
2023-04-26T14:28:20.578Z,2.67
2023-04-26T14:30:46.869Z,2.80
2023-04-26T14:33:13.372Z,2.45
2023-04-26T14:35:39.968Z,2.28
2023-04-26T14:38:06.240Z,2.50
2023-04-26T14:40:32.996Z,2.40
2023-04-26T14:42:59.302Z,2.28
2023-04-26T14:45:36.861Z,2.17
2023-04-26T14:48:10.467Z,2.28
2023-04-26T14:50:36.758Z,2.10
2023-04-26T14:53:03.102Z,2.45
2023-04-26T14:55:29.548Z,2.90
2023-04-26T14:57:55.848Z,2.47
2023-04-26T15:00:22.667Z,2.35
2023-04-26T15:02:49.148Z,2.08
2023-04-26T15:05:15.653Z,2.60
2023-04-26T15:07:41.929Z,2.65
2023-04-26T15:10:08.726Z,2.33
2023-04-26T15:12:35.530Z,2.30
2023-04-26T15:15:02.573Z,2.25
2023-04-26T15:17:31.962Z,2.50
2023-04-26T15:19:58.471Z,2.45
2023-04-26T15:22:24.823Z,2.30
2023-04-26T15:24:51.216Z,2.75
2023-04-26T15:27:17.580Z,2.03
2023-04-26T15:29:43.969Z,2.40
2023-04-26T15:32:10.334Z,2.38
2023-04-26T15:34:40.426Z,2.45
2023-04-26T15:37:06.932Z,2.95
2023-04-26T15:39:33.254Z,2.90
2023-04-26T15:41:59.547Z,2.20
2023-04-26T15:44:25.924Z,2.05
2023-04-26T15:46:52.218Z,2.10
2023-04-26T15:49:18.567Z,1.92
2023-04-26T15:51:44.852Z,2.33
2023-04-26T15:54:11.188Z,2.30
2023-04-26T15:56:37.504Z,2.42
2023-04-26T15:59:03.845Z,2.53
2023-04-26T16:01:30.192Z,2.33
2023-04-26T16:03:56.719Z,2.58
2023-04-26T16:06:23.108Z,2.30
2023-04-26T16:08:49.420Z,2.40
2023-04-26T16:11:15.737Z,2.47
2023-04-26T16:13:42.074Z,2.50
2023-04-26T16:16:08.640Z,2.10
2023-04-26T16:18:35.038Z,2.17
2023-04-26T16:21:04.863Z,1.95
2023-04-26T16:23:31.183Z,2.28
2023-04-26T16:25:57.650Z,2.20
2023-04-26T16:28:23.951Z,2.30
2023-04-26T16:30:50.245Z,2.10
2023-04-26T16:33:16.550Z,2.45
2023-04-26T16:35:42.993Z,2.75
2023-04-26T16:38:09.282Z,2.00
2023-04-26T16:40:35.596Z,2.20
2023-04-26T16:43:01.916Z,2.40
2023-04-26T16:45:28.268Z,2.13
2023-04-26T16:47:54.642Z,2.20
2023-04-26T16:50:21.028Z,2.33
2023-04-26T16:52:47.416Z,2.15
2023-04-26T16:55:13.768Z,1.95
2023-04-26T16:57:40.068Z,2.20
2023-04-26T17:00:07.018Z,2.38
2023-04-26T17:02:33.521Z,2.78
2023-04-26T17:05:00.143Z,2.33
2023-04-26T17:07:26.708Z,2.38
2023-04-26T17:09:53.028Z,2.45
2023-04-26T17:12:19.310Z,2.70
2023-04-26T17:14:45.605Z,2.33
2023-04-26T17:17:11.946Z,2.35
2023-04-26T17:19:38.273Z,2.53
2023-04-26T17:22:04.609Z,2.90
2023-04-26T17:24:30.903Z,2.85
2023-04-26T17:26:57.284Z,2.67
2023-04-26T17:29:23.569Z,2.28
2023-04-26T17:31:49.968Z,2.40
2023-04-26T17:34:16.282Z,2.67
2023-04-26T17:36:42.663Z,1.95
2023-04-26T17:39:08.970Z,2.70
2023-04-26T17:41:35.276Z,2.40
2023-04-26T17:44:01.572Z,2.03
2023-04-26T17:46:28.105Z,2.40
2023-04-26T17:48:54.540Z,2.08
2023-04-26T17:51:20.933Z,2.63
2023-04-26T17:53:47.261Z,2.78
2023-04-26T17:56:13.569Z,2.40
2023-04-26T17:58:39.867Z,2.28
2023-04-26T18:01:06.388Z,2.30
2023-04-26T18:03:32.852Z,2.13
2023-04-26T18:05:59.279Z,2.40
2023-04-26T18:08:25.628Z,2.22
2023-04-26T18:10:52.045Z,2.20
2023-04-26T18:13:18.513Z,2.75
2023-04-26T18:15:45.086Z,2.15
2023-04-26T18:18:11.402Z,2.53
2023-04-26T18:20:37.770Z,2.35
2023-04-26T18:23:04.195Z,2.15
2023-04-26T18:25:30.490Z,2.38
2023-04-26T18:27:56.775Z,2.80
2023-04-26T18:30:23.199Z,2.40
2023-04-26T18:32:51.558Z,2.78
2023-04-26T18:35:18.116Z,2.80
2023-04-26T18:37:44.454Z,3.20
2023-04-26T18:40:11.392Z,2.38
2023-04-26T18:42:37.687Z,2.58
2023-04-26T18:45:05.705Z,2.70
2023-04-26T18:47:32.136Z,2.75
2023-04-26T18:49:58.580Z,2.47
2023-04-26T18:52:24.871Z,3.15
2023-04-26T18:54:51.172Z,3.20
2023-04-26T18:57:17.441Z,3.55
2023-04-26T18:59:43.711Z,3.33
2023-04-26T19:02:10.154Z,3.40
2023-04-26T19:04:36.873Z,2.90
2023-04-26T19:07:03.311Z,3.25
2023-04-26T19:09:31.987Z,4.65
2023-04-26T19:12:01.388Z,3.78
2023-04-26T19:14:27.682Z,3.70
2023-04-26T19:16:54.018Z,3.97
2023-04-26T19:19:20.315Z,4.00
2023-04-26T19:21:46.627Z,3.90
2023-04-26T19:24:12.926Z,4.25
2023-04-26T19:26:39.294Z,5.10
2023-04-26T19:29:06.825Z,4.47
2023-04-26T19:31:33.702Z,4.53
2023-04-26T19:34:00.052Z,5.05
2023-04-26T19:36:26.344Z,4.03
2023-04-26T19:38:52.671Z,3.78
2023-04-26T19:41:18.964Z,3.65
2023-04-26T19:43:45.301Z,4.25
2023-04-26T19:46:13.053Z,3.10
2023-04-26T19:48:40.099Z,3.60
2023-04-26T19:51:06.459Z,2.67
2023-04-26T19:53:33.174Z,3.03
2023-04-26T19:55:59.470Z,2.67
2023-04-26T19:58:25.750Z,2.72
2023-04-26T20:00:52.070Z,4.10
2023-04-26T20:03:18.523Z,3.50
2023-04-26T20:05:44.905Z,4.65
2023-04-26T20:08:11.236Z,4.85
2023-04-26T20:10:37.650Z,5.28
2023-04-26T20:13:03.938Z,5.25
2023-04-26T20:15:32.233Z,5.32
2023-04-26T20:18:00.596Z,6.57
2023-04-26T20:20:26.955Z,6.03
2023-04-26T20:22:53.243Z,5.63
2023-04-26T20:25:19.905Z,5.97
2023-04-26T20:27:46.973Z,6.70
2023-04-26T20:30:14.863Z,6.60
2023-04-26T20:32:41.435Z,6.30
2023-04-26T20:35:08.232Z,5.13
2023-04-26T20:37:34.790Z,5.70
2023-04-26T20:40:01.289Z,5.05
2023-04-26T20:42:27.673Z,4.97
2023-04-26T20:44:53.963Z,5.32
2023-04-26T20:47:20.232Z,5.38
2023-04-26T20:49:46.593Z,6.43
2023-04-26T20:52:12.938Z,6.30
2023-04-26T20:54:39.362Z,5.47
2023-04-26T20:57:05.721Z,4.57
2023-04-26T20:59:32.025Z,5.20
2023-04-26T21:01:58.433Z,5.20
2023-04-26T21:04:25.274Z,5.88
2023-04-26T21:06:51.744Z,6.50
2023-04-26T21:09:18.047Z,5.68
2023-04-26T21:11:47.652Z,6.80
2023-04-26T21:14:13.946Z,5.53
2023-04-26T21:16:40.842Z,5.20
2023-04-26T21:19:07.827Z,4.60
2023-04-26T21:21:34.572Z,4.40
2023-04-26T21:24:00.871Z,4.22
2023-04-26T21:26:27.134Z,4.15
2023-04-26T21:28:53.557Z,4.78
2023-04-26T21:31:19.872Z,5.93
2023-04-26T21:33:46.161Z,6.60
2023-04-26T21:36:12.565Z,5.63
2023-04-26T21:38:38.871Z,6.00
2023-04-26T21:41:05.233Z,5.00
2023-04-26T21:43:31.530Z,5.57
2023-04-26T21:45:58.351Z,5.60
2023-04-26T21:48:25.750Z,5.60
2023-04-26T21:50:52.280Z,5.90
2023-04-26T21:53:18.619Z,5.43
2023-04-26T21:55:50.780Z,4.93
2023-04-26T21:58:17.450Z,5.57
2023-04-26T22:00:43.918Z,5.25
2023-04-26T22:03:10.529Z,5.15
2023-04-26T22:05:37.091Z,5.10
2023-04-26T22:08:03.714Z,5.28
2023-04-26T22:10:30.278Z,5.95
2023-04-26T22:12:56.577Z,5.18
2023-04-26T22:15:23.276Z,5.00
2023-04-26T22:17:49.688Z,5.38
2023-04-26T22:20:16.070Z,5.40
2023-04-26T22:22:42.404Z,5.50
2023-04-26T22:25:09.218Z,5.10
2023-04-26T22:27:35.505Z,5.60
2023-04-26T22:30:09.418Z,5.03
2023-04-26T22:32:47.077Z,5.18
2023-04-26T22:35:13.537Z,5.07
2023-04-26T22:37:40.086Z,5.20
2023-04-26T22:40:07.168Z,5.50
2023-04-26T22:42:33.749Z,5.15
2023-04-26T22:45:00.281Z,5.13
2023-04-26T22:47:26.867Z,5.20
2023-04-26T22:49:53.404Z,5.03
2023-04-26T22:52:28.290Z,5.25
2023-04-26T22:54:58.138Z,4.68
2023-04-26T22:57:24.936Z,5.05
2023-04-26T22:59:51.501Z,4.90
2023-04-26T23:02:18.048Z,4.85
2023-04-26T23:04:44.856Z,4.90
2023-04-26T23:07:11.454Z,5.05
2023-04-26T23:09:38.104Z,4.50
2023-04-26T23:12:05.046Z,5.40
2023-04-26T23:14:31.930Z,4.55
2023-04-26T23:16:58.674Z,4.57
2023-04-26T23:19:25.709Z,4.95
2023-04-26T23:21:52.508Z,4.85
2023-04-26T23:24:19.116Z,4.78
2023-04-26T23:26:45.674Z,4.53
2023-04-26T23:29:15.422Z,4.05
2023-04-26T23:31:42.428Z,4.80
2023-04-26T23:34:09.174Z,4.90
2023-04-26T23:36:35.660Z,5.03
2023-04-26T23:39:02.265Z,5.15
2023-04-26T23:41:28.885Z,4.60
2023-04-26T23:43:55.555Z,4.53
2023-04-26T23:46:22.088Z,4.22
2023-04-26T23:48:48.638Z,4.53
2023-04-26T23:51:15.148Z,4.90
2023-04-26T23:53:41.595Z,4.78
2023-04-26T23:56:08.198Z,4.95
2023-04-26T23:58:34.699Z,4.70
